Route Details

Aircraft Information
Group: North America Fleet
Types: B738, B752, B762, B763
Route Data
Distance: 827nm
Duration: 2h 35m
Origin METAR: KCVG 072352Z 25008KT 10SM -RA SCT027 OVC036 12/09 A3015 RMK AO2 RAB21 SLP207 SCT V BKN P0000 60001 T01170094 10133 20111 51019
Dest. METAR: KMIA 072353Z 10010KT 10SM SCT040 SCT250 24/15 A3023 RMK AO2 SLP236 T02390150 10267 20233 53008 $
Freight Data
(for Feb 8, 2023)
Load Factor:
78%
Manifested Cargo: 93,391lbs
Financial History
Total Freight: 717,262lbs
Average Load: 0lbs/flt
Fuel Used: 345,165lbs
Avg. Fuel Used: 0lbs/flt
Fuel Expense: $238,780
Avg. Fuel Expense: $0
Avg. Fuel Cost: $0/lbs
Total Gross Income: $1,207,832
Pilot Pay: $1,481
Total Expenses: $163,430
Total Revenue: $802,367
Average Revenue: $0

Capitol Logistics 479




KCVG
Cincinnati/Northern Kentucky International Airport
Covington, Kentucky
KMIA
Miami International Airport
Miami, Florida